sensor_id;sensor_type;location;lat;lon;timestamp;pressure;altitude;pressure_sealevel;temperature;humidity
37132;BME280;23035;50.032;21.978;2023-04-04T00:00:47;65006.25;;;-1.57;100.00
37132;BME280;23035;50.032;21.978;2023-04-04T00:05:54;64995.63;;;-1.67;100.00
37132;BME280;23035;50.032;21.978;2023-04-04T00:10:58;64983.28;;;-1.81;100.00
37132;BME280;23035;50.032;21.978;2023-04-04T00:16:03;64973.09;;;-1.93;100.00
37132;BME280;23035;50.032;21.978;2023-04-04T00:21:09;64973.09;;;-1.93;100.00
37132;BME280;23035;50.032;21.978;2023-04-04T00:26:13;64992.09;;;-1.78;100.00
37132;BME280;23035;50.032;21.978;2023-04-04T00:31:20;64963.66;;;-2.00;100.00
37132;BME280;23035;50.032;21.978;2023-04-04T00:36:25;64974.16;;;-1.92;100.00
37132;BME280;23035;50.032;21.978;2023-04-04T00:41:29;64980.66;;;-1.84;100.00
37132;BME280;23035;50.032;21.978;2023-04-04T00:46:34;64999.22;;;-1.66;100.00
37132;BME280;23035;50.032;21.978;2023-04-04T00:51:39;65012.38;;;-1.56;100.00
37132;BME280;23035;50.032;21.978;2023-04-04T00:56:43;65074.81;;;-1.01;100.00
37132;BME280;23035;50.032;21.978;2023-04-04T01:01:48;65007.31;;;-1.56;100.00
37132;BME280;23035;50.032;21.978;2023-04-04T01:06:54;64981.19;;;-1.83;100.00
37132;BME280;23035;50.032;21.978;2023-04-04T01:11:59;64992.84;;;-1.72;100.00
37132;BME280;23035;50.032;21.978;2023-04-04T01:17:06;65030.03;;;-1.36;100.00
37132;BME280;23035;50.032;21.978;2023-04-04T01:22:13;64972.25;;;-1.89;100.00
37132;BME280;23035;50.032;21.978;2023-04-04T01:27:19;64962.06;;;-2.02;100.00
37132;BME280;23035;50.032;21.978;2023-04-04T01:32:43;64956.88;;;-2.04;100.00
37132;BME280;23035;50.032;21.978;2023-04-04T01:37:54;64934.91;;;-2.30;100.00
37132;BME280;23035;50.032;21.978;2023-04-04T01:43:06;64925.06;;;-2.35;100.00
37132;BME280;23035;50.032;21.978;2023-04-04T01:48:14;64923.34;;;-2.39;100.00
37132;BME280;23035;50.032;21.978;2023-04-04T01:53:23;64937.00;;;-2.28;100.00
37132;BME280;23035;50.032;21.978;2023-04-04T01:58:28;64942.97;;;-2.20;100.00
37132;BME280;23035;50.032;21.978;2023-04-04T02:03:33;64993.50;;;-1.69;100.00
37132;BME280;23035;50.032;21.978;2023-04-04T02:08:37;64998.16;;;-1.67;100.00
37132;BME280;23035;50.032;21.978;2023-04-04T02:13:45;65008.66;;;-1.59;100.00
37132;BME280;23035;50.032;21.978;2023-04-04T02:18:52;64982.78;;;-1.82;100.00
37132;BME280;23035;50.032;21.978;2023-04-04T02:23:56;64969.81;;;-1.99;100.00
37132;BME280;23035;50.032;21.978;2023-04-04T02:29:03;64988.63;;;-1.76;100.00
37132;BME280;23035;50.032;21.978;2023-04-04T02:34:07;64979.59;;;-1.85;100.00
37132;BME280;23035;50.032;21.978;2023-04-04T02:39:12;64957.19;;;-2.09;100.00
37132;BME280;23035;50.032;21.978;2023-04-04T02:44:17;64972.50;;;-1.84;100.00
37132;BME280;23035;50.032;21.978;2023-04-04T02:49:25;64992.31;;;-1.73;100.00
37132;BME280;23035;50.032;21.978;2023-04-04T02:54:32;64987.66;;;-1.75;100.00
37132;BME280;23035;50.032;21.978;2023-04-04T02:59:39;65007.59;;;-1.60;100.00
37132;BME280;23035;50.032;21.978;2023-04-04T03:04:44;65010.25;;;-1.58;100.00
37132;BME280;23035;50.032;21.978;2023-04-04T03:09:51;64997.09;;;-1.68;100.00
37132;BME280;23035;50.032;21.978;2023-04-04T03:15:00;64991.38;;;-1.71;100.00
37132;BME280;23035;50.032;21.978;2023-04-04T03:20:11;64996.16;;;-1.66;100.00
37132;BME280;23035;50.032;21.978;2023-04-04T03:25:20;64993.81;;;-1.74;100.00
37132;BME280;23035;50.032;21.978;2023-04-04T03:30:30;64987.53;;;-1.77;100.00
37132;BME280;23035;50.032;21.978;2023-04-04T03:35:38;64981.91;;;-1.78;100.00
37132;BME280;23035;50.032;21.978;2023-04-04T03:40:46;64954.63;;;-2.09;100.00
37132;BME280;23035;50.032;21.978;2023-04-04T03:45:59;64961.84;;;-2.07;100.00
37132;BME280;23035;50.032;21.978;2023-04-04T03:51:06;64951.56;;;-2.09;100.00
37132;BME280;23035;50.032;21.978;2023-04-04T03:56:14;64959.94;;;-2.04;100.00
37132;BME280;23035;50.032;21.978;2023-04-04T04:01:21;64961.44;;;-2.05;100.00
37132;BME280;23035;50.032;21.978;2023-04-04T04:06:29;64967.59;;;-1.91;100.00
37132;BME280;23035;50.032;21.978;2023-04-04T04:11:36;64979.59;;;-1.85;100.00
37132;BME280;23035;50.032;21.978;2023-04-04T04:16:44;65030.66;;;-1.33;100.00
37132;BME280;23035;50.032;21.978;2023-04-04T04:21:57;65003.91;;;-1.64;100.00
37132;BME280;23035;50.032;21.978;2023-04-04T04:27:06;65035.97;;;-1.28;100.00
37132;BME280;23035;50.032;21.978;2023-04-04T04:32:16;65017.25;;;-1.49;100.00
37132;BME280;23035;50.032;21.978;2023-04-04T04:37:28;65019.41;;;-1.47;100.00
37132;BME280;23035;50.032;21.978;2023-04-04T04:42:40;65030.44;;;-1.38;100.00
37132;BME280;23035;50.032;21.978;2023-04-04T04:47:53;65031.63;;;-1.35;100.00
37132;BME280;23035;50.032;21.978;2023-04-04T04:52:59;65043.72;;;-1.26;100.00
37132;BME280;23035;50.032;21.978;2023-04-04T04:58:07;65113.94;;;-0.56;100.00
37132;BME280;23035;50.032;21.978;2023-04-04T05:03:21;65120.31;;;-0.50;100.00
37132;BME280;23035;50.032;21.978;2023-04-04T05:08:29;65115.00;;;-0.55;100.00
37132;BME280;23035;50.032;21.978;2023-04-04T05:13:42;65171.31;;;-0.01;100.00
37132;BME280;23035;50.032;21.978;2023-04-04T05:18:52;65183.66;;;0.13;100.00
37132;BME280;23035;50.032;21.978;2023-04-04T05:23:59;65161.13;;;-0.13;100.00
37132;BME280;23035;50.032;21.978;2023-04-04T05:29:05;65126.16;;;-0.44;100.00
37132;BME280;23035;50.032;21.978;2023-04-04T05:34:18;65148.38;;;-0.25;100.00
37132;BME280;23035;50.032;21.978;2023-04-04T05:39:27;65157.50;;;-0.14;100.00
37132;BME280;23035;50.032;21.978;2023-04-04T05:44:39;65202.69;;;0.29;100.00
37132;BME280;23035;50.032;21.978;2023-04-04T05:49:49;65303.88;;;1.28;100.00
37132;BME280;23035;50.032;21.978;2023-04-04T05:54:56;65214.50;;;0.43;100.00
37132;BME280;23035;50.032;21.978;2023-04-04T06:00:08;65267.69;;;0.94;100.00
37132;BME280;23035;50.032;21.978;2023-04-04T06:05:17;65285.69;;;1.08;100.00
37132;BME280;23035;50.032;21.978;2023-04-04T06:10:23;65255.91;;;0.80;100.00
37132;BME280;23035;50.032;21.978;2023-04-04T06:15:32;65258.56;;;0.82;100.00
37132;BME280;23035;50.032;21.978;2023-04-04T06:20:42;65330.41;;;1.51;100.00
37132;BME280;23035;50.032;21.978;2023-04-04T06:25:49;65299.53;;;1.22;100.00
37132;BME280;23035;50.032;21.978;2023-04-04T06:30:56;65321.88;;;1.43;100.00
37132;BME280;23035;50.032;21.978;2023-04-04T06:36:09;65317.63;;;1.39;100.00
37132;BME280;23035;50.032;21.978;2023-04-04T06:41:16;65313.03;;;1.39;100.00
37132;BME280;23035;50.032;21.978;2023-04-04T06:46:24;65319.41;;;1.46;100.00
37132;BME280;23035;50.032;21.978;2023-04-04T06:51:32;65312.81;;;1.34;100.00
37132;BME280;23035;50.032;21.978;2023-04-04T06:56:39;65296.53;;;1.24;100.00
37132;BME280;23035;50.032;21.978;2023-04-04T07:01:45;65355.53;;;1.78;100.00
37132;BME280;23035;50.032;21.978;2023-04-04T07:06:51;65388.97;;;2.07;100.00
37132;BME280;23035;50.032;21.978;2023-04-04T07:11:56;65385.75;;;2.04;100.00
37132;BME280;23035;50.032;21.978;2023-04-04T07:17:02;65451.91;;;2.70;100.00
37132;BME280;23035;50.032;21.978;2023-04-04T07:22:21;65448.00;;;2.61;100.00
37132;BME280;23035;50.032;21.978;2023-04-04T07:27:28;65390.75;;;2.14;100.00
37132;BME280;23035;50.032;21.978;2023-04-04T07:32:34;65432.63;;;2.49;100.00
37132;BME280;23035;50.032;21.978;2023-04-04T07:37:42;65510.78;;;3.19;96.86
37132;BME280;23035;50.032;21.978;2023-04-04T07:42:47;65513.75;;;3.29;92.56
37132;BME280;23035;50.032;21.978;2023-04-04T07:47:55;65415.69;;;2.35;100.00
37132;BME280;23035;50.032;21.978;2023-04-04T07:53:03;65458.94;;;2.79;91.73
37132;BME280;23035;50.032;21.978;2023-04-04T07:58:10;65420.06;;;2.42;83.60
37132;BME280;23035;50.032;21.978;2023-04-04T08:03:17;65434.34;;;2.53;79.65
37132;BME280;23035;50.032;21.978;2023-04-04T08:08:24;65392.25;;;2.13;88.85
37132;BME280;23035;50.032;21.978;2023-04-04T08:13:29;65436.38;;;2.52;85.18
37132;BME280;23035;50.032;21.978;2023-04-04T08:18:37;65408.25;;;2.28;81.39
37132;BME280;23035;50.032;21.978;2023-04-04T08:23:46;65507.25;;;3.20;76.96
37132;BME280;23035;50.032;21.978;2023-04-04T08:28:53;65451.69;;;2.77;77.18
37132;BME280;23035;50.032;21.978;2023-04-04T08:34:00;65449.16;;;2.65;79.91
37132;BME280;23035;50.032;21.978;2023-04-04T08:39:07;65465.13;;;2.80;78.31
37132;BME280;23035;50.032;21.978;2023-04-04T08:44:16;65405.03;;;2.25;77.74
37132;BME280;23035;50.032;21.978;2023-04-04T08:49:23;65443.81;;;2.59;73.32
37132;BME280;23035;50.032;21.978;2023-04-04T08:54:33;65356.47;;;1.76;74.50
37132;BME280;23035;50.032;21.978;2023-04-04T08:59:41;65313.03;;;1.39;75.30
37132;BME280;23035;50.032;21.978;2023-04-04T09:04:48;65266.84;;;0.85;79.86
37132;BME280;23035;50.032;21.978;2023-04-04T09:10:11;65290.56;;;1.15;79.07
37132;BME280;23035;50.032;21.978;2023-04-04T09:15:17;65369.25;;;1.88;72.61
37132;BME280;23035;50.032;21.978;2023-04-04T09:20:37;65389.50;;;2.08;72.13
37132;BME280;23035;50.032;21.978;2023-04-04T09:25:47;65385.31;;;2.06;73.69
37132;BME280;23035;50.032;21.978;2023-04-04T09:30:59;65443.28;;;2.59;73.82
37132;BME280;23035;50.032;21.978;2023-04-04T09:36:09;65409.41;;;2.32;71.84
37132;BME280;23035;50.032;21.978;2023-04-04T09:41:18;65456.81;;;2.77;68.52
37132;BME280;23035;50.032;21.978;2023-04-04T09:46:25;65477.94;;;2.92;69.79
37132;BME280;23035;50.032;21.978;2023-04-04T09:51:35;65475.81;;;2.90;71.72
37132;BME280;23035;50.032;21.978;2023-04-04T09:56:44;65555.34;;;3.68;69.53
37132;BME280;23035;50.032;21.978;2023-04-04T10:01:53;65598.00;;;4.09;68.00
37132;BME280;23035;50.032;21.978;2023-04-04T10:07:01;65550.63;;;3.66;68.18
37132;BME280;23035;50.032;21.978;2023-04-04T10:12:10;65528.25;;;3.45;66.66
37132;BME280;23035;50.032;21.978;2023-04-04T10:17:22;65604.84;;;4.13;63.32
37132;BME280;23035;50.032;21.978;2023-04-04T10:22:30;65564.50;;;3.80;63.93
37132;BME280;23035;50.032;21.978;2023-04-04T10:27:38;65753.44;;;5.60;56.26
37132;BME280;23035;50.032;21.978;2023-04-04T10:32:59;65635.81;;;4.43;61.83
37132;BME280;23035;50.032;21.978;2023-04-04T10:38:09;65607.50;;;4.16;65.96
37132;BME280;23035;50.032;21.978;2023-04-04T10:43:23;65553.84;;;3.69;61.20
37132;BME280;23035;50.032;21.978;2023-04-04T10:48:33;65605.38;;;4.14;62.65
37132;BME280;23035;50.032;21.978;2023-04-04T10:53:42;65580.94;;;3.93;61.80
37132;BME280;23035;50.032;21.978;2023-04-04T10:58:50;65583.06;;;3.95;60.29
37132;BME280;23035;50.032;21.978;2023-04-04T11:04:18;65510.66;;;3.28;62.82
37132;BME280;23035;50.032;21.978;2023-04-04T11:09:47;65612.50;;;4.25;58.59
37132;BME280;23035;50.032;21.978;2023-04-04T11:15:05;65658.22;;;4.64;57.51
37132;BME280;23035;50.032;21.978;2023-04-04T11:20:15;65547.34;;;3.61;63.51
37132;BME280;23035;50.032;21.978;2023-04-04T11:25:31;65512.25;;;3.30;70.79
37132;BME280;23035;50.032;21.978;2023-04-04T11:30:42;65516.94;;;3.32;72.15
37132;BME280;23035;50.032;21.978;2023-04-04T11:35:57;65505.13;;;3.18;70.07
37132;BME280;23035;50.032;21.978;2023-04-04T11:41:04;65546.16;;;3.57;68.72
37132;BME280;23035;50.032;21.978;2023-04-04T11:46:16;65858.72;;;6.60;59.97
37132;BME280;23035;50.032;21.978;2023-04-04T11:51:25;65830.94;;;6.33;60.01
37132;BME280;23035;50.032;21.978;2023-04-04T11:56:36;65757.63;;;5.61;58.36
37132;BME280;23035;50.032;21.978;2023-04-04T12:01:44;65636.88;;;4.44;65.03
37132;BME280;23035;50.032;21.978;2023-04-04T12:06:52;65605.91;;;4.14;63.59
37132;BME280;23035;50.032;21.978;2023-04-04T12:12:00;65508.84;;;3.22;70.80
37132;BME280;23035;50.032;21.978;2023-04-04T12:17:10;65485.41;;;2.99;73.83
37132;BME280;23035;50.032;21.978;2023-04-04T12:22:19;65580.22;;;3.87;65.99
37132;BME280;23035;50.032;21.978;2023-04-04T12:27:25;65671.19;;;4.81;62.40
37132;BME280;23035;50.032;21.978;2023-04-04T12:32:34;65681.06;;;4.83;64.97
37132;BME280;23035;50.032;21.978;2023-04-04T12:37:38;65733.03;;;5.38;62.61
37132;BME280;23035;50.032;21.978;2023-04-04T12:42:48;65693.44;;;4.98;59.92
37132;BME280;23035;50.032;21.978;2023-04-04T12:47:57;65574.63;;;3.89;62.32
37132;BME280;23035;50.032;21.978;2023-04-04T12:53:04;65529.94;;;3.49;66.86
37132;BME280;23035;50.032;21.978;2023-04-04T12:58:33;65505.66;;;3.19;69.63
37132;BME280;23035;50.032;21.978;2023-04-04T13:03:43;65535.06;;;3.49;70.53
37132;BME280;23035;50.032;21.978;2023-04-04T13:08:51;65648.16;;;4.57;65.41
37132;BME280;23035;50.032;21.978;2023-04-04T13:14:01;65658.41;;;4.69;65.03
37132;BME280;23035;50.032;21.978;2023-04-04T13:19:07;65778.53;;;5.84;61.09
37132;BME280;23035;50.032;21.978;2023-04-04T13:24:12;66039.53;;;8.32;50.99
37132;BME280;23035;50.032;21.978;2023-04-04T13:29:19;65853.47;;;6.57;54.04
37132;BME280;23035;50.032;21.978;2023-04-04T13:34:30;65618.47;;;4.34;64.07
37132;BME280;23035;50.032;21.978;2023-04-04T13:39:37;65512.06;;;3.25;72.00
37132;BME280;23035;50.032;21.978;2023-04-04T13:44:42;65520.78;;;3.38;74.38
37132;BME280;23035;50.032;21.978;2023-04-04T13:49:48;65702.41;;;5.04;68.64
37132;BME280;23035;50.032;21.978;2023-04-04T13:54:54;65756.53;;;5.60;61.88
37132;BME280;23035;50.032;21.978;2023-04-04T14:00:00;65731.53;;;5.39;62.42
37132;BME280;23035;50.032;21.978;2023-04-04T14:05:12;65587.97;;;4.02;70.82
37132;BME280;23035;50.032;21.978;2023-04-04T14:10:16;65685.00;;;4.92;68.93
37132;BME280;23035;50.032;21.978;2023-04-04T14:15:22;65664.81;;;4.75;67.13
37132;BME280;23035;50.032;21.978;2023-04-04T14:20:30;65525.56;;;3.42;71.10
37132;BME280;23035;50.032;21.978;2023-04-04T14:25:37;65580.31;;;3.90;68.37
37132;BME280;23035;50.032;21.978;2023-04-04T14:30:42;65500.31;;;3.13;73.48
37132;BME280;23035;50.032;21.978;2023-04-04T14:35:47;65492.44;;;3.08;74.93
37132;BME280;23035;50.032;21.978;2023-04-04T14:40:52;65549.38;;;3.60;73.78
37132;BME280;23035;50.032;21.978;2023-04-04T14:45:57;65534.44;;;3.46;75.22
37132;BME280;23035;50.032;21.978;2023-04-04T14:51:05;65432.09;;;2.48;77.13
37132;BME280;23035;50.032;21.978;2023-04-04T14:56:12;65446.50;;;2.62;80.19
37132;BME280;23035;50.032;21.978;2023-04-04T15:01:17;65439.03;;;2.55;80.38
37132;BME280;23035;50.032;21.978;2023-04-04T15:06:26;65466.41;;;2.86;80.04
37132;BME280;23035;50.032;21.978;2023-04-04T15:11:34;65488.16;;;3.04;77.55
37132;BME280;23035;50.032;21.978;2023-04-04T15:16:40;65461.50;;;2.79;75.74
37132;BME280;23035;50.032;21.978;2023-04-04T15:21:46;65482.41;;;3.01;78.07
37132;BME280;23035;50.032;21.978;2023-04-04T15:26:51;65485.41;;;2.99;80.60
37132;BME280;23035;50.032;21.978;2023-04-04T15:31:57;65449.16;;;2.65;86.43
37132;BME280;23035;50.032;21.978;2023-04-04T15:37:03;65474.31;;;2.91;86.44
37132;BME280;23035;50.032;21.978;2023-04-04T15:42:07;65471.09;;;2.88;81.45
37132;BME280;23035;50.032;21.978;2023-04-04T15:47:11;65411.88;;;2.29;83.66
37132;BME280;23035;50.032;21.978;2023-04-04T15:52:16;65440.31;;;2.61;82.47
37132;BME280;23035;50.032;21.978;2023-04-04T15:57:20;65428.91;;;2.45;82.87
37132;BME280;23035;50.032;21.978;2023-04-04T16:02:24;65414.63;;;2.34;84.94
37132;BME280;23035;50.032;21.978;2023-04-04T16:07:30;65425.91;;;2.47;86.04
37132;BME280;23035;50.032;21.978;2023-04-04T16:12:34;65463.22;;;2.83;85.03
37132;BME280;23035;50.032;21.978;2023-04-04T16:17:41;65520.78;;;3.38;80.17
37132;BME280;23035;50.032;21.978;2023-04-04T16:22:46;65383.19;;;2.04;92.35
37132;BME280;23035;50.032;21.978;2023-04-04T16:27:50;65408.78;;;2.28;92.57
37132;BME280;23035;50.032;21.978;2023-04-04T16:32:54;65353.69;;;1.83;93.76
37132;BME280;23035;50.032;21.978;2023-04-04T16:38:00;65331.34;;;1.50;97.44
37132;BME280;23035;50.032;21.978;2023-04-04T16:43:04;65333.25;;;1.59;97.49
37132;BME280;23035;50.032;21.978;2023-04-04T16:48:08;65307.91;;;1.27;100.00
37132;BME280;23035;50.032;21.978;2023-04-04T16:53:13;65321.34;;;1.42;100.00
37132;BME280;23035;50.032;21.978;2023-04-04T16:58:17;65275.25;;;1.03;100.00
37132;BME280;23035;50.032;21.978;2023-04-04T17:03:22;65310.78;;;1.35;100.00
37132;BME280;23035;50.032;21.978;2023-04-04T17:08:27;65317.09;;;1.38;100.00
37132;BME280;23035;50.032;21.978;2023-04-04T17:13:31;65355.63;;;1.80;100.00
37132;BME280;23035;50.032;21.978;2023-04-04T17:18:35;65316.56;;;1.38;100.00
37132;BME280;23035;50.032;21.978;2023-04-04T17:23:40;65285.16;;;1.08;100.00
37132;BME280;23035;50.032;21.978;2023-04-04T17:28:44;65301.88;;;1.29;100.00
37132;BME280;23035;50.032;21.978;2023-04-04T17:33:48;65270.47;;;0.99;100.00
37132;BME280;23035;50.032;21.978;2023-04-04T17:38:54;65288.34;;;1.11;100.00
37132;BME280;23035;50.032;21.978;2023-04-04T17:43:58;65281.97;;;1.05;100.00
37132;BME280;23035;50.032;21.978;2023-04-04T17:49:02;65275.16;;;1.01;100.00
37132;BME280;23035;50.032;21.978;2023-04-04T17:54:07;65264.94;;;0.89;100.00
37132;BME280;23035;50.032;21.978;2023-04-04T17:59:12;65283.88;;;1.02;100.00
37132;BME280;23035;50.032;21.978;2023-04-04T18:04:16;65244.59;;;0.67;100.00
37132;BME280;23035;50.032;21.978;2023-04-04T18:09:22;65228.13;;;0.51;100.00
37132;BME280;23035;50.032;21.978;2023-04-04T18:14:26;65232.47;;;0.57;100.00
37132;BME280;23035;50.032;21.978;2023-04-04T18:19:30;65218.13;;;0.44;100.00
37132;BME280;23035;50.032;21.978;2023-04-04T18:24:36;65230.47;;;0.58;100.00
37132;BME280;23035;50.032;21.978;2023-04-04T18:29:40;65216.63;;;0.45;100.00
37132;BME280;23035;50.032;21.978;2023-04-04T18:34:44;65203.88;;;0.33;100.00
37132;BME280;23035;50.032;21.978;2023-04-04T18:39:50;65215.13;;;0.46;100.00
37132;BME280;23035;50.032;21.978;2023-04-04T18:44:58;65206.00;;;0.35;100.00
37132;BME280;23035;50.032;21.978;2023-04-04T18:50:03;65191.53;;;0.18;100.00
37132;BME280;23035;50.032;21.978;2023-04-04T18:55:09;65177.38;;;0.10;100.00
37132;BME280;23035;50.032;21.978;2023-04-04T19:00:14;65121.50;;;-0.46;100.00
37132;BME280;23035;50.032;21.978;2023-04-04T19:05:21;65134.66;;;-0.36;100.00
37132;BME280;23035;50.032;21.978;2023-04-04T19:10:27;65151.34;;;-0.15;100.00
37132;BME280;23035;50.032;21.978;2023-04-04T19:15:31;65169.84;;;0.00;100.00
37132;BME280;23035;50.032;21.978;2023-04-04T19:20:36;65171.13;;;0.06;100.00
37132;BME280;23035;50.032;21.978;2023-04-04T19:25:44;65182.50;;;0.10;100.00
37132;BME280;23035;50.032;21.978;2023-04-04T19:30:48;65168.69;;;-0.04;100.00
37132;BME280;23035;50.032;21.978;2023-04-04T19:35:58;65176.75;;;0.07;100.00
37132;BME280;23035;50.032;21.978;2023-04-04T19:41:06;65170.91;;;0.01;100.00
37132;BME280;23035;50.032;21.978;2023-04-04T19:46:12;65174.00;;;0.02;100.00
37132;BME280;23035;50.032;21.978;2023-04-04T19:51:49;65172.28;;;-0.03;100.00
37132;BME280;23035;50.032;21.978;2023-04-04T19:56:59;65170.28;;;-0.02;100.00
37132;BME280;23035;50.032;21.978;2023-04-04T20:02:04;65170.91;;;0.01;100.00
37132;BME280;23035;50.032;21.978;2023-04-04T20:07:09;65180.28;;;0.05;100.00
37132;BME280;23035;50.032;21.978;2023-04-04T20:12:15;65167.09;;;-0.05;100.00
37132;BME280;23035;50.032;21.978;2023-04-04T20:17:20;65178.56;;;0.01;100.00
37132;BME280;23035;50.032;21.978;2023-04-04T20:22:24;65179.41;;;0.09;100.00
37132;BME280;23035;50.032;21.978;2023-04-04T20:27:30;65172.59;;;0.05;100.00
37132;BME280;23035;50.032;21.978;2023-04-04T20:32:34;65187.38;;;0.17;100.00
37132;BME280;23035;50.032;21.978;2023-04-04T20:37:38;65161.34;;;-0.08;100.00
37132;BME280;23035;50.032;21.978;2023-04-04T20:42:44;65170.78;;;-0.02;100.00
37132;BME280;23035;50.032;21.978;2023-04-04T20:47:51;65167.50;;;-0.07;100.00
37132;BME280;23035;50.032;21.978;2023-04-04T20:52:56;65169.97;;;0.03;100.00
37132;BME280;23035;50.032;21.978;2023-04-04T20:58:07;65144.97;;;-0.21;100.00
37132;BME280;23035;50.032;21.978;2023-04-04T21:03:26;65136.25;;;-0.35;100.00
37132;BME280;23035;50.032;21.978;2023-04-04T21:08:45;65140.50;;;-0.31;100.00
37132;BME280;23035;50.032;21.978;2023-04-04T21:13:50;65140.50;;;-0.31;100.00
37132;BME280;23035;50.032;21.978;2023-04-04T21:18:56;65118.41;;;-0.47;100.00
37132;BME280;23035;50.032;21.978;2023-04-04T21:24:01;65138.38;;;-0.33;100.00
37132;BME280;23035;50.032;21.978;2023-04-04T21:29:17;65126.91;;;-0.39;100.00
37132;BME280;23035;50.032;21.978;2023-04-04T21:34:25;65132.22;;;-0.34;100.00
37132;BME280;23035;50.032;21.978;2023-04-04T21:39:29;65127.31;;;-0.41;100.00
37132;BME280;23035;50.032;21.978;2023-04-04T21:44:35;65148.03;;;-0.21;100.00
37132;BME280;23035;50.032;21.978;2023-04-04T21:49:40;65133.19;;;-0.35;100.00
37132;BME280;23035;50.032;21.978;2023-04-04T21:54:44;65132.75;;;-0.33;100.00
37132;BME280;23035;50.032;21.978;2023-04-04T21:59:49;65152.00;;;-0.24;100.00
37132;BME280;23035;50.032;21.978;2023-04-04T22:04:53;65134.56;;;-0.39;100.00
37132;BME280;23035;50.032;21.978;2023-04-04T22:09:58;65136.25;;;-0.35;100.00
37132;BME280;23035;50.032;21.978;2023-04-04T22:15:08;65131.06;;;-0.37;100.00
37132;BME280;23035;50.032;21.978;2023-04-04T22:20:13;65138.81;;;-0.35;100.00
37132;BME280;23035;50.032;21.978;2023-04-04T22:25:17;65115.63;;;-0.52;100.00
37132;BME280;23035;50.032;21.978;2023-04-04T22:30:22;65101.81;;;-0.65;100.00
37132;BME280;23035;50.032;21.978;2023-04-04T22:35:27;65102.47;;;-0.62;100.00
37132;BME280;23035;50.032;21.978;2023-04-04T22:40:33;65088.66;;;-0.75;100.00
37132;BME280;23035;50.032;21.978;2023-04-04T22:45:38;65095.34;;;-0.74;100.00
37132;BME280;23035;50.032;21.978;2023-04-04T22:50:42;65080.16;;;-0.83;100.00
37132;BME280;23035;50.032;21.978;2023-04-04T22:55:51;65090.97;;;-0.80;100.00
37132;BME280;23035;50.032;21.978;2023-04-04T23:01:01;65149.53;;;-0.22;100.00
37132;BME280;23035;50.032;21.978;2023-04-04T23:06:05;65091.09;;;-0.78;100.00
37132;BME280;23035;50.032;21.978;2023-04-04T23:11:09;65065.06;;;-1.03;100.00
37132;BME280;23035;50.032;21.978;2023-04-04T23:16:14;65046.56;;;-1.18;100.00
37132;BME280;23035;50.032;21.978;2023-04-04T23:21:19;65023.88;;;-1.37;100.00
37132;BME280;23035;50.032;21.978;2023-04-04T23:26:23;65010.47;;;-1.53;100.00
37132;BME280;23035;50.032;21.978;2023-04-04T23:31:30;64991.78;;;-1.73;100.00
37132;BME280;23035;50.032;21.978;2023-04-04T23:36:34;64976.53;;;-1.85;100.00
37132;BME280;23035;50.032;21.978;2023-04-04T23:41:38;64973.09;;;-1.93;100.00
37132;BME280;23035;50.032;21.978;2023-04-04T23:46:43;64965.25;;;-1.98;100.00
37132;BME280;23035;50.032;21.978;2023-04-04T23:51:48;64971.63;;;-1.92;100.00
37132;BME280;23035;50.032;21.978;2023-04-04T23:56:52;64965.03;;;-2.04;100.00
